首页
METAR-TAF:

METAR-TAF

机场 :

卡斯特爾, 法国

纬度: 43-33-25N, 经度: 2-17-21E, 海拔: 239米

当前天气观测

该预报发布于33分钟前的10:30 UTC
风速6节,风向西,在西南西北之间变化
温度 22°C
湿度 57%
气压 1029 hPa
能见度10公里或以上
1500米以下无云,无积雨云

METAR: LFCK 261030Z AUTO 26006KT 220V310 CAVOK 22/13 Q1029 NOSIG

时间: 13:03 (11:03 UTC)

预报

该预报发布于3小时和3分钟前的08:00 UTC
预报有效从26日的 09点(UTC)到 26日的 18点(UTC)
风速10节,风向西转西北
能见度10公里或以上
1500米以下无云,无积雨云

TAF: LFCK 260800Z 2609/2618 29010KT CAVOK

超过4000个机场的气象观测和天气预报(METAR&TAF报告)。

可查询的气象台以黄色和红色小点在地图上表示。

将鼠标移到小点上方,可查看气象台名称。

然后点击查看天气观测和预报。

如需切换地图:点击带黑十字的绿色按钮放大地图;点击带横线的绿色按钮缩小地图;或者点击绿色箭头查看邻近地区的地图。


METAR-TAF: